sensor_id;sensor_type;location;lat;lon;timestamp;P1;durP1;ratioP1;P2;durP2;ratioP2
38944;SDS011;24732;49.088;8.286;2022-09-01T00:00:37;6.25;;;5.70;;
38944;SDS011;24732;49.088;8.286;2022-09-01T00:03:23;6.10;;;5.60;;
38944;SDS011;24732;49.088;8.286;2022-09-01T00:06:09;6.07;;;5.57;;
38944;SDS011;24732;49.088;8.286;2022-09-01T00:08:57;6.35;;;5.80;;
38944;SDS011;24732;49.088;8.286;2022-09-01T00:11:45;6.40;;;5.75;;
38944;SDS011;24732;49.088;8.286;2022-09-01T00:14:33;6.47;;;5.97;;
38944;SDS011;24732;49.088;8.286;2022-09-01T00:17:20;6.85;;;6.15;;
38944;SDS011;24732;49.088;8.286;2022-09-01T00:20:10;6.80;;;6.20;;
38944;SDS011;24732;49.088;8.286;2022-09-01T00:22:56;7.07;;;6.10;;
38944;SDS011;24732;49.088;8.286;2022-09-01T00:25:44;7.07;;;6.45;;
38944;SDS011;24732;49.088;8.286;2022-09-01T00:28:31;6.75;;;6.15;;
38944;SDS011;24732;49.088;8.286;2022-09-01T00:31:19;6.93;;;6.32;;
38944;SDS011;24732;49.088;8.286;2022-09-01T00:34:05;7.32;;;6.40;;
38944;SDS011;24732;49.088;8.286;2022-09-01T00:36:52;6.90;;;6.30;;
38944;SDS011;24732;49.088;8.286;2022-09-01T00:39:38;7.20;;;6.50;;
38944;SDS011;24732;49.088;8.286;2022-09-01T00:42:24;7.25;;;6.55;;
38944;SDS011;24732;49.088;8.286;2022-09-01T00:45:11;6.97;;;6.38;;
38944;SDS011;24732;49.088;8.286;2022-09-01T00:47:57;7.25;;;6.65;;
38944;SDS011;24732;49.088;8.286;2022-09-01T00:50:44;7.23;;;6.53;;
38944;SDS011;24732;49.088;8.286;2022-09-01T00:53:31;7.43;;;6.72;;
38944;SDS011;24732;49.088;8.286;2022-09-01T00:56:18;7.57;;;6.87;;
38944;SDS011;24732;49.088;8.286;2022-09-01T00:59:05;7.63;;;6.93;;
38944;SDS011;24732;49.088;8.286;2022-09-01T01:01:52;7.53;;;6.80;;
38944;SDS011;24732;49.088;8.286;2022-09-01T01:04:38;7.30;;;6.60;;
38944;SDS011;24732;49.088;8.286;2022-09-01T01:07:28;7.30;;;6.60;;
38944;SDS011;24732;49.088;8.286;2022-09-01T01:10:14;7.28;;;6.57;;
38944;SDS011;24732;49.088;8.286;2022-09-01T01:13:05;7.53;;;6.72;;
38944;SDS011;24732;49.088;8.286;2022-09-01T01:15:53;7.35;;;6.65;;
38944;SDS011;24732;49.088;8.286;2022-09-01T01:18:44;7.43;;;6.73;;
38944;SDS011;24732;49.088;8.286;2022-09-01T01:21:32;7.53;;;6.82;;
38944;SDS011;24732;49.088;8.286;2022-09-01T01:24:39;7.72;;;6.82;;
38944;SDS011;24732;49.088;8.286;2022-09-01T01:27:33;7.10;;;6.50;;
38944;SDS011;24732;49.088;8.286;2022-09-01T01:30:25;7.50;;;6.85;;
38944;SDS011;24732;49.088;8.286;2022-09-01T01:33:22;7.18;;;6.47;;
38944;SDS011;24732;49.088;8.286;2022-09-01T01:36:10;7.10;;;6.50;;
38944;SDS011;24732;49.088;8.286;2022-09-01T01:38:58;7.07;;;6.45;;
38944;SDS011;24732;49.088;8.286;2022-09-01T01:41:54;7.40;;;6.70;;
38944;SDS011;24732;49.088;8.286;2022-09-01T01:44:43;7.40;;;6.70;;
38944;SDS011;24732;49.088;8.286;2022-09-01T01:47:32;7.22;;;6.57;;
38944;SDS011;24732;49.088;8.286;2022-09-01T01:50:22;7.18;;;6.50;;
38944;SDS011;24732;49.088;8.286;2022-09-01T01:53:09;7.50;;;6.70;;
38944;SDS011;24732;49.088;8.286;2022-09-01T01:55:57;7.28;;;6.60;;
38944;SDS011;24732;49.088;8.286;2022-09-01T01:58:49;7.40;;;6.70;;
38944;SDS011;24732;49.088;8.286;2022-09-01T02:01:39;7.18;;;6.47;;
38944;SDS011;24732;49.088;8.286;2022-09-01T02:04:27;7.72;;;7.03;;
38944;SDS011;24732;49.088;8.286;2022-09-01T02:07:15;7.97;;;7.18;;
38944;SDS011;24732;49.088;8.286;2022-09-01T02:10:02;7.35;;;6.65;;
38944;SDS011;24732;49.088;8.286;2022-09-01T02:12:48;7.43;;;6.75;;
38944;SDS011;24732;49.088;8.286;2022-09-01T02:15:40;7.70;;;7.00;;
38944;SDS011;24732;49.088;8.286;2022-09-01T02:18:34;7.63;;;7.03;;
38944;SDS011;24732;49.088;8.286;2022-09-01T02:21:22;7.78;;;7.07;;
38944;SDS011;24732;49.088;8.286;2022-09-01T02:24:08;8.20;;;7.40;;
38944;SDS011;24732;49.088;8.286;2022-09-01T02:26:55;8.00;;;7.30;;
38944;SDS011;24732;49.088;8.286;2022-09-01T02:29:42;7.90;;;7.20;;
38944;SDS011;24732;49.088;8.286;2022-09-01T02:32:28;7.70;;;7.00;;
38944;SDS011;24732;49.088;8.286;2022-09-01T02:35:15;7.63;;;6.93;;
38944;SDS011;24732;49.088;8.286;2022-09-01T02:38:04;7.60;;;7.00;;
38944;SDS011;24732;49.088;8.286;2022-09-01T02:40:51;7.97;;;7.28;;
38944;SDS011;24732;49.088;8.286;2022-09-01T02:43:38;7.63;;;7.03;;
38944;SDS011;24732;49.088;8.286;2022-09-01T02:46:24;8.25;;;7.47;;
38944;SDS011;24732;49.088;8.286;2022-09-01T02:49:12;8.05;;;7.35;;
38944;SDS011;24732;49.088;8.286;2022-09-01T02:52:01;8.55;;;7.78;;
38944;SDS011;24732;49.088;8.286;2022-09-01T02:54:48;8.10;;;7.43;;
38944;SDS011;24732;49.088;8.286;2022-09-01T02:57:35;8.15;;;7.35;;
38944;SDS011;24732;49.088;8.286;2022-09-01T03:00:21;7.97;;;7.28;;
38944;SDS011;24732;49.088;8.286;2022-09-01T03:03:15;8.07;;;7.30;;
38944;SDS011;24732;49.088;8.286;2022-09-01T03:06:02;7.88;;;7.07;;
38944;SDS011;24732;49.088;8.286;2022-09-01T03:08:49;8.00;;;7.30;;
38944;SDS011;24732;49.088;8.286;2022-09-01T03:11:37;8.23;;;7.43;;
38944;SDS011;24732;49.088;8.286;2022-09-01T03:14:24;8.13;;;7.40;;
38944;SDS011;24732;49.088;8.286;2022-09-01T03:17:11;8.10;;;7.30;;
38944;SDS011;24732;49.088;8.286;2022-09-01T03:19:58;8.05;;;7.25;;
38944;SDS011;24732;49.088;8.286;2022-09-01T03:22:44;8.00;;;7.30;;
38944;SDS011;24732;49.088;8.286;2022-09-01T03:25:31;8.00;;;7.20;;
38944;SDS011;24732;49.088;8.286;2022-09-01T03:28:18;7.82;;;7.22;;
38944;SDS011;24732;49.088;8.286;2022-09-01T03:31:05;8.60;;;7.70;;
38944;SDS011;24732;49.088;8.286;2022-09-01T03:33:52;8.20;;;7.40;;
38944;SDS011;24732;49.088;8.286;2022-09-01T03:36:38;8.47;;;7.17;;
38944;SDS011;24732;49.088;8.286;2022-09-01T03:39:34;8.23;;;7.43;;
38944;SDS011;24732;49.088;8.286;2022-09-01T03:42:21;8.27;;;7.57;;
38944;SDS011;24732;49.088;8.286;2022-09-01T03:45:10;8.67;;;7.87;;
38944;SDS011;24732;49.088;8.286;2022-09-01T03:48:00;8.48;;;7.78;;
38944;SDS011;24732;49.088;8.286;2022-09-01T03:50:53;8.27;;;7.57;;
38944;SDS011;24732;49.088;8.286;2022-09-01T03:53:40;8.07;;;7.30;;
38944;SDS011;24732;49.088;8.286;2022-09-01T03:56:27;8.00;;;7.30;;
38944;SDS011;24732;49.088;8.286;2022-09-01T03:59:13;8.70;;;7.80;;
38944;SDS011;24732;49.088;8.286;2022-09-01T04:02:03;8.35;;;7.65;;
38944;SDS011;24732;49.088;8.286;2022-09-01T04:04:50;10.02;;;9.02;;
38944;SDS011;24732;49.088;8.286;2022-09-01T04:07:36;8.40;;;7.70;;
38944;SDS011;24732;49.088;8.286;2022-09-01T04:10:23;8.88;;;7.90;;
38944;SDS011;24732;49.088;8.286;2022-09-01T04:13:09;8.85;;;8.05;;
38944;SDS011;24732;49.088;8.286;2022-09-01T04:15:57;7.97;;;7.28;;
38944;SDS011;24732;49.088;8.286;2022-09-01T04:18:43;8.25;;;7.55;;
38944;SDS011;24732;49.088;8.286;2022-09-01T04:21:34;8.85;;;7.95;;
38944;SDS011;24732;49.088;8.286;2022-09-01T04:24:23;8.35;;;7.65;;
38944;SDS011;24732;49.088;8.286;2022-09-01T04:27:12;8.57;;;7.78;;
38944;SDS011;24732;49.088;8.286;2022-09-01T04:29:59;8.63;;;7.93;;
38944;SDS011;24732;49.088;8.286;2022-09-01T04:32:45;8.70;;;7.90;;
38944;SDS011;24732;49.088;8.286;2022-09-01T04:35:36;8.82;;;8.02;;
38944;SDS011;24732;49.088;8.286;2022-09-01T04:38:23;8.90;;;8.10;;
38944;SDS011;24732;49.088;8.286;2022-09-01T04:41:09;8.40;;;7.70;;
38944;SDS011;24732;49.088;8.286;2022-09-01T04:44:02;8.63;;;7.82;;
38944;SDS011;24732;49.088;8.286;2022-09-01T04:46:49;8.73;;;7.93;;
38944;SDS011;24732;49.088;8.286;2022-09-01T04:49:35;8.68;;;7.90;;
38944;SDS011;24732;49.088;8.286;2022-09-01T04:52:21;8.95;;;8.00;;
38944;SDS011;24732;49.088;8.286;2022-09-01T04:55:09;9.00;;;8.20;;
38944;SDS011;24732;49.088;8.286;2022-09-01T04:58:01;8.97;;;8.10;;
38944;SDS011;24732;49.088;8.286;2022-09-01T05:00:48;8.30;;;7.60;;
38944;SDS011;24732;49.088;8.286;2022-09-01T05:03:40;8.60;;;7.80;;
38944;SDS011;24732;49.088;8.286;2022-09-01T05:06:27;8.75;;;8.05;;
38944;SDS011;24732;49.088;8.286;2022-09-01T05:09:15;8.27;;;7.55;;
38944;SDS011;24732;49.088;8.286;2022-09-01T05:12:02;8.38;;;7.60;;
38944;SDS011;24732;49.088;8.286;2022-09-01T05:15:01;9.02;;;8.23;;
38944;SDS011;24732;49.088;8.286;2022-09-01T05:17:50;9.05;;;8.27;;
38944;SDS011;24732;49.088;8.286;2022-09-01T05:20:39;8.53;;;7.73;;
38944;SDS011;24732;49.088;8.286;2022-09-01T05:23:26;10.95;;;9.95;;
38944;SDS011;24732;49.088;8.286;2022-09-01T05:26:15;11.95;;;10.20;;
38944;SDS011;24732;49.088;8.286;2022-09-01T05:29:03;8.73;;;7.93;;
38944;SDS011;24732;49.088;8.286;2022-09-01T05:31:55;8.57;;;7.78;;
38944;SDS011;24732;49.088;8.286;2022-09-01T05:34:41;9.20;;;8.30;;
38944;SDS011;24732;49.088;8.286;2022-09-01T05:37:29;8.25;;;7.55;;
38944;SDS011;24732;49.088;8.286;2022-09-01T05:40:15;8.93;;;8.13;;
38944;SDS011;24732;49.088;8.286;2022-09-01T05:43:02;8.80;;;8.10;;
38944;SDS011;24732;49.088;8.286;2022-09-01T05:45:48;8.98;;;8.18;;
38944;SDS011;24732;49.088;8.286;2022-09-01T05:48:35;8.57;;;7.78;;
38944;SDS011;24732;49.088;8.286;2022-09-01T05:51:25;9.00;;;8.20;;
38944;SDS011;24732;49.088;8.286;2022-09-01T05:54:19;9.25;;;8.38;;
38944;SDS011;24732;49.088;8.286;2022-09-01T05:57:07;9.10;;;8.30;;
38944;SDS011;24732;49.088;8.286;2022-09-01T05:59:54;9.20;;;8.40;;
38944;SDS011;24732;49.088;8.286;2022-09-01T06:02:40;9.32;;;8.50;;
38944;SDS011;24732;49.088;8.286;2022-09-01T06:05:27;9.20;;;8.40;;
38944;SDS011;24732;49.088;8.286;2022-09-01T06:08:14;9.47;;;8.57;;
38944;SDS011;24732;49.088;8.286;2022-09-01T06:11:02;9.97;;;9.10;;
38944;SDS011;24732;49.088;8.286;2022-09-01T06:13:56;9.93;;;9.02;;
38944;SDS011;24732;49.088;8.286;2022-09-01T06:16:43;9.73;;;8.93;;
38944;SDS011;24732;49.088;8.286;2022-09-01T06:19:30;10.55;;;9.55;;
38944;SDS011;24732;49.088;8.286;2022-09-01T06:22:18;10.80;;;9.80;;
38944;SDS011;24732;49.088;8.286;2022-09-01T06:25:05;10.27;;;9.27;;
38944;SDS011;24732;49.088;8.286;2022-09-01T06:27:53;10.63;;;9.63;;
38944;SDS011;24732;49.088;8.286;2022-09-01T06:30:39;10.93;;;9.93;;
38944;SDS011;24732;49.088;8.286;2022-09-01T06:33:26;11.40;;;10.05;;
38944;SDS011;24732;49.088;8.286;2022-09-01T06:36:13;11.38;;;10.38;;
38944;SDS011;24732;49.088;8.286;2022-09-01T06:39:00;12.37;;;11.27;;
38944;SDS011;24732;49.088;8.286;2022-09-01T06:41:47;11.85;;;10.75;;
38944;SDS011;24732;49.088;8.286;2022-09-01T06:44:36;12.68;;;11.48;;
38944;SDS011;24732;49.088;8.286;2022-09-01T06:47:23;12.43;;;11.27;;
38944;SDS011;24732;49.088;8.286;2022-09-01T06:50:13;12.70;;;11.50;;
38944;SDS011;24732;49.088;8.286;2022-09-01T06:53:00;12.32;;;11.23;;
38944;SDS011;24732;49.088;8.286;2022-09-01T06:55:54;13.00;;;11.80;;
38944;SDS011;24732;49.088;8.286;2022-09-01T06:58:41;13.07;;;11.77;;
38944;SDS011;24732;49.088;8.286;2022-09-01T07:01:32;12.63;;;11.35;;
38944;SDS011;24732;49.088;8.286;2022-09-01T07:04:19;13.07;;;11.87;;
38944;SDS011;24732;49.088;8.286;2022-09-01T07:07:08;13.98;;;12.57;;
38944;SDS011;24732;49.088;8.286;2022-09-01T07:09:55;13.73;;;12.43;;
38944;SDS011;24732;49.088;8.286;2022-09-01T07:12:42;13.52;;;12.23;;
38944;SDS011;24732;49.088;8.286;2022-09-01T07:15:30;14.45;;;13.05;;
38944;SDS011;24732;49.088;8.286;2022-09-01T07:18:18;14.10;;;12.70;;
38944;SDS011;24732;49.088;8.286;2022-09-01T07:21:05;13.73;;;12.43;;
38944;SDS011;24732;49.088;8.286;2022-09-01T07:23:51;12.75;;;11.45;;
38944;SDS011;24732;49.088;8.286;2022-09-01T07:26:39;13.52;;;12.23;;
38944;SDS011;24732;49.088;8.286;2022-09-01T07:29:25;14.30;;;12.90;;
38944;SDS011;24732;49.088;8.286;2022-09-01T07:32:12;13.20;;;11.90;;
38944;SDS011;24732;49.088;8.286;2022-09-01T07:35:00;13.13;;;11.93;;
38944;SDS011;24732;49.088;8.286;2022-09-01T07:37:46;13.18;;;11.98;;
38944;SDS011;24732;49.088;8.286;2022-09-01T07:40:33;13.18;;;11.98;;
38944;SDS011;24732;49.088;8.286;2022-09-01T07:43:23;13.38;;;12.07;;
38944;SDS011;24732;49.088;8.286;2022-09-01T07:46:10;12.90;;;11.70;;
38944;SDS011;24732;49.088;8.286;2022-09-01T07:48:57;12.95;;;11.75;;
38944;SDS011;24732;49.088;8.286;2022-09-01T07:51:51;13.18;;;11.98;;
38944;SDS011;24732;49.088;8.286;2022-09-01T07:54:41;13.07;;;11.77;;
38944;SDS011;24732;49.088;8.286;2022-09-01T07:57:27;12.60;;;11.40;;
38944;SDS011;24732;49.088;8.286;2022-09-01T08:00:14;12.00;;;10.90;;
38944;SDS011;24732;49.088;8.286;2022-09-01T08:03:01;12.70;;;11.47;;
38944;SDS011;24732;49.088;8.286;2022-09-01T08:05:48;13.10;;;11.88;;
38944;SDS011;24732;49.088;8.286;2022-09-01T08:08:38;11.80;;;10.60;;
38944;SDS011;24732;49.088;8.286;2022-09-01T08:11:26;12.83;;;11.53;;
38944;SDS011;24732;49.088;8.286;2022-09-01T08:14:13;12.82;;;11.70;;
38944;SDS011;24732;49.088;8.286;2022-09-01T08:16:59;12.40;;;11.20;;
38944;SDS011;24732;49.088;8.286;2022-09-01T08:19:46;12.50;;;11.30;;
38944;SDS011;24732;49.088;8.286;2022-09-01T08:22:32;12.27;;;11.18;;
38944;SDS011;24732;49.088;8.286;2022-09-01T08:25:18;12.52;;;11.32;;
38944;SDS011;24732;49.088;8.286;2022-09-01T08:28:05;12.40;;;11.20;;
38944;SDS011;24732;49.088;8.286;2022-09-01T08:30:52;12.25;;;11.07;;
38944;SDS011;24732;49.088;8.286;2022-09-01T08:33:40;11.63;;;10.53;;
38944;SDS011;24732;49.088;8.286;2022-09-01T08:36:27;12.05;;;10.95;;
38944;SDS011;24732;49.088;8.286;2022-09-01T08:39:13;11.50;;;10.50;;
38944;SDS011;24732;49.088;8.286;2022-09-01T08:42:08;12.13;;;10.93;;
38944;SDS011;24732;49.088;8.286;2022-09-01T08:44:58;11.30;;;10.18;;
38944;SDS011;24732;49.088;8.286;2022-09-01T08:47:47;11.33;;;10.23;;
38944;SDS011;24732;49.088;8.286;2022-09-01T08:50:37;11.38;;;10.27;;
38944;SDS011;24732;49.088;8.286;2022-09-01T08:56:13;11.25;;;10.25;;
38944;SDS011;24732;49.088;8.286;2022-09-01T08:59:00;11.32;;;10.13;;
38944;SDS011;24732;49.088;8.286;2022-09-01T09:01:50;10.27;;;9.20;;
38944;SDS011;24732;49.088;8.286;2022-09-01T09:10:31;9.53;;;8.53;;
38944;SDS011;24732;49.088;8.286;2022-09-01T09:16:31;9.10;;;8.30;;
38944;SDS011;24732;49.088;8.286;2022-09-01T09:22:16;9.25;;;8.43;;
38944;SDS011;24732;49.088;8.286;2022-09-01T09:25:10;8.75;;;7.95;;
38944;SDS011;24732;49.088;8.286;2022-09-01T09:27:58;8.40;;;7.60;;
38944;SDS011;24732;49.088;8.286;2022-09-01T09:30:45;8.80;;;7.90;;
38944;SDS011;24732;49.088;8.286;2022-09-01T09:33:33;19.03;;;17.13;;
38944;SDS011;24732;49.088;8.286;2022-09-01T09:36:21;10.40;;;9.45;;
38944;SDS011;24732;49.088;8.286;2022-09-01T09:42:09;8.20;;;7.50;;
38944;SDS011;24732;49.088;8.286;2022-09-01T09:44:55;8.73;;;7.93;;
38944;SDS011;24732;49.088;8.286;2022-09-01T09:47:43;8.67;;;7.83;;
38944;SDS011;24732;49.088;8.286;2022-09-01T09:50:35;8.30;;;7.60;;
38944;SDS011;24732;49.088;8.286;2022-09-01T09:56:19;7.95;;;7.25;;
38944;SDS011;24732;49.088;8.286;2022-09-01T10:14:22;7.38;;;6.68;;
38944;SDS011;24732;49.088;8.286;2022-09-01T10:17:16;7.53;;;6.82;;
38944;SDS011;24732;49.088;8.286;2022-09-01T10:20:08;7.80;;;7.10;;
38944;SDS011;24732;49.088;8.286;2022-09-01T10:22:58;7.43;;;6.72;;
38944;SDS011;24732;49.088;8.286;2022-09-01T10:25:44;7.50;;;6.80;;
38944;SDS011;24732;49.088;8.286;2022-09-01T10:28:31;6.80;;;6.22;;
38944;SDS011;24732;49.088;8.286;2022-09-01T10:31:19;7.30;;;6.60;;
38944;SDS011;24732;49.088;8.286;2022-09-01T10:34:07;7.40;;;6.70;;
38944;SDS011;24732;49.088;8.286;2022-09-01T10:36:57;8.52;;;7.00;;
38944;SDS011;24732;49.088;8.286;2022-09-01T10:42:53;21.87;;;8.23;;
38944;SDS011;24732;49.088;8.286;2022-09-01T10:45:40;8.18;;;7.00;;
38944;SDS011;24732;49.088;8.286;2022-09-01T10:48:29;7.20;;;6.60;;
38944;SDS011;24732;49.088;8.286;2022-09-01T10:54:04;7.38;;;6.68;;
38944;SDS011;24732;49.088;8.286;2022-09-01T10:56:50;8.07;;;6.95;;
38944;SDS011;24732;49.088;8.286;2022-09-01T10:59:38;7.93;;;7.13;;
38944;SDS011;24732;49.088;8.286;2022-09-01T11:02:24;7.35;;;6.75;;
38944;SDS011;24732;49.088;8.286;2022-09-01T11:05:12;7.60;;;6.90;;
38944;SDS011;24732;49.088;8.286;2022-09-01T11:07:58;8.10;;;7.30;;
38944;SDS011;24732;49.088;8.286;2022-09-01T11:10:53;7.32;;;6.63;;
38944;SDS011;24732;49.088;8.286;2022-09-01T11:13:48;7.38;;;6.70;;
38944;SDS011;24732;49.088;8.286;2022-09-01T11:16:35;7.10;;;6.50;;
38944;SDS011;24732;49.088;8.286;2022-09-01T11:30:48;7.65;;;6.95;;
38944;SDS011;24732;49.088;8.286;2022-09-01T11:33:54;7.53;;;6.68;;
38944;SDS011;24732;49.088;8.286;2022-09-01T11:39:32;8.53;;;6.93;;
38944;SDS011;24732;49.088;8.286;2022-09-01T11:45:18;6.82;;;6.22;;
38944;SDS011;24732;49.088;8.286;2022-09-01T11:48:09;7.97;;;6.20;;
38944;SDS011;24732;49.088;8.286;2022-09-01T11:50:58;6.82;;;6.22;;
38944;SDS011;24732;49.088;8.286;2022-09-01T11:53:46;8.50;;;6.82;;
38944;SDS011;24732;49.088;8.286;2022-09-01T11:56:32;9.00;;;6.50;;
38944;SDS011;24732;49.088;8.286;2022-09-01T11:59:29;7.47;;;6.75;;
38944;SDS011;24732;49.088;8.286;2022-09-01T12:02:16;6.85;;;6.25;;
38944;SDS011;24732;49.088;8.286;2022-09-01T12:05:03;6.90;;;6.30;;
38944;SDS011;24732;49.088;8.286;2022-09-01T12:08:12;6.80;;;6.20;;
38944;SDS011;24732;49.088;8.286;2022-09-01T12:11:04;7.45;;;6.72;;
38944;SDS011;24732;49.088;8.286;2022-09-01T12:14:10;8.98;;;6.80;;
38944;SDS011;24732;49.088;8.286;2022-09-01T12:16:58;7.40;;;6.20;;
38944;SDS011;24732;49.088;8.286;2022-09-01T12:19:45;7.18;;;6.40;;
38944;SDS011;24732;49.088;8.286;2022-09-01T12:22:31;7.20;;;6.50;;
38944;SDS011;24732;49.088;8.286;2022-09-01T12:28:10;7.20;;;6.50;;
38944;SDS011;24732;49.088;8.286;2022-09-01T12:30:57;7.13;;;6.40;;
38944;SDS011;24732;49.088;8.286;2022-09-01T12:33:45;10.05;;;7.40;;
38944;SDS011;24732;49.088;8.286;2022-09-01T12:36:33;9.80;;;8.85;;
38944;SDS011;24732;49.088;8.286;2022-09-01T12:39:21;8.10;;;7.35;;
38944;SDS011;24732;49.088;8.286;2022-09-01T12:44:55;7.17;;;6.47;;
38944;SDS011;24732;49.088;8.286;2022-09-01T12:50:33;9.05;;;6.68;;
38944;SDS011;24732;49.088;8.286;2022-09-01T12:53:20;5.97;;;5.43;;
38944;SDS011;24732;49.088;8.286;2022-09-01T12:56:15;6.30;;;5.70;;
38944;SDS011;24732;49.088;8.286;2022-09-01T12:59:04;6.80;;;6.10;;
38944;SDS011;24732;49.088;8.286;2022-09-01T13:01:51;5.80;;;5.30;;
38944;SDS011;24732;49.088;8.286;2022-09-01T13:04:38;7.82;;;7.13;;
38944;SDS011;24732;49.088;8.286;2022-09-01T13:07:28;6.40;;;5.40;;
38944;SDS011;24732;49.088;8.286;2022-09-01T13:10:14;6.15;;;5.45;;
38944;SDS011;24732;49.088;8.286;2022-09-01T13:13:00;6.43;;;5.82;;
38944;SDS011;24732;49.088;8.286;2022-09-01T13:15:48;5.88;;;5.35;;
38944;SDS011;24732;49.088;8.286;2022-09-01T13:18:35;6.05;;;5.47;;
38944;SDS011;24732;49.088;8.286;2022-09-01T13:21:21;6.30;;;5.78;;
38944;SDS011;24732;49.088;8.286;2022-09-01T13:24:08;6.20;;;5.65;;
38944;SDS011;24732;49.088;8.286;2022-09-01T13:26:54;6.05;;;5.45;;
38944;SDS011;24732;49.088;8.286;2022-09-01T13:29:41;5.75;;;5.25;;
38944;SDS011;24732;49.088;8.286;2022-09-01T13:32:28;6.30;;;5.70;;
38944;SDS011;24732;49.088;8.286;2022-09-01T13:35:16;6.00;;;5.47;;
38944;SDS011;24732;49.088;8.286;2022-09-01T13:38:04;6.00;;;5.40;;
38944;SDS011;24732;49.088;8.286;2022-09-01T13:40:50;5.72;;;5.18;;
38944;SDS011;24732;49.088;8.286;2022-09-01T13:43:37;5.22;;;4.72;;
38944;SDS011;24732;49.088;8.286;2022-09-01T13:46:23;5.38;;;4.88;;
38944;SDS011;24732;49.088;8.286;2022-09-01T13:49:09;6.13;;;5.20;;
38944;SDS011;24732;49.088;8.286;2022-09-01T13:51:56;5.55;;;5.05;;
38944;SDS011;24732;49.088;8.286;2022-09-01T13:54:42;5.40;;;4.90;;
38944;SDS011;24732;49.088;8.286;2022-09-01T13:57:29;5.00;;;4.60;;
38944;SDS011;24732;49.088;8.286;2022-09-01T14:00:16;5.20;;;4.70;;
38944;SDS011;24732;49.088;8.286;2022-09-01T14:03:04;5.03;;;4.55;;
38944;SDS011;24732;49.088;8.286;2022-09-01T14:05:51;4.95;;;4.40;;
38944;SDS011;24732;49.088;8.286;2022-09-01T14:08:38;6.22;;;4.40;;
38944;SDS011;24732;49.088;8.286;2022-09-01T14:11:24;5.10;;;4.57;;
38944;SDS011;24732;49.088;8.286;2022-09-01T14:14:11;5.03;;;4.05;;
38944;SDS011;24732;49.088;8.286;2022-09-01T14:16:57;4.83;;;4.43;;
38944;SDS011;24732;49.088;8.286;2022-09-01T14:19:48;5.03;;;4.55;;
38944;SDS011;24732;49.088;8.286;2022-09-01T14:22:34;5.28;;;4.78;;
38944;SDS011;24732;49.088;8.286;2022-09-01T14:25:21;5.00;;;4.50;;
38944;SDS011;24732;49.088;8.286;2022-09-01T14:28:07;4.78;;;4.32;;
38944;SDS011;24732;49.088;8.286;2022-09-01T14:30:53;5.03;;;4.63;;
38944;SDS011;24732;49.088;8.286;2022-09-01T14:33:40;4.90;;;4.33;;
38944;SDS011;24732;49.088;8.286;2022-09-01T14:36:26;4.72;;;4.32;;
38944;SDS011;24732;49.088;8.286;2022-09-01T14:39:13;4.57;;;4.10;;
38944;SDS011;24732;49.088;8.286;2022-09-01T14:41:59;4.40;;;4.00;;
38944;SDS011;24732;49.088;8.286;2022-09-01T14:44:46;3.95;;;3.60;;
38944;SDS011;24732;49.088;8.286;2022-09-01T14:47:33;4.68;;;3.90;;
38944;SDS011;24732;49.088;8.286;2022-09-01T14:50:19;4.00;;;3.60;;
38944;SDS011;24732;49.088;8.286;2022-09-01T14:53:06;4.30;;;4.00;;
38944;SDS011;24732;49.088;8.286;2022-09-01T14:55:53;4.45;;;4.07;;
38944;SDS011;24732;49.088;8.286;2022-09-01T14:58:40;4.57;;;4.18;;
38944;SDS011;24732;49.088;8.286;2022-09-01T15:01:29;4.55;;;4.20;;
38944;SDS011;24732;49.088;8.286;2022-09-01T15:04:16;4.70;;;4.30;;
38944;SDS011;24732;49.088;8.286;2022-09-01T15:07:02;4.60;;;4.18;;
38944;SDS011;24732;49.088;8.286;2022-09-01T15:09:49;4.85;;;4.40;;
38944;SDS011;24732;49.088;8.286;2022-09-01T15:12:36;4.80;;;4.23;;
38944;SDS011;24732;49.088;8.286;2022-09-01T15:15:24;4.70;;;4.30;;
38944;SDS011;24732;49.088;8.286;2022-09-01T15:18:11;4.40;;;4.10;;
38944;SDS011;24732;49.088;8.286;2022-09-01T15:20:57;4.80;;;4.00;;
38944;SDS011;24732;49.088;8.286;2022-09-01T15:23:43;4.90;;;4.40;;
38944;SDS011;24732;49.088;8.286;2022-09-01T15:26:30;4.70;;;4.30;;
38944;SDS011;24732;49.088;8.286;2022-09-01T15:29:16;4.93;;;4.20;;
38944;SDS011;24732;49.088;8.286;2022-09-01T15:32:02;4.55;;;4.10;;
38944;SDS011;24732;49.088;8.286;2022-09-01T15:34:49;4.90;;;4.50;;
38944;SDS011;24732;49.088;8.286;2022-09-01T15:37:35;6.45;;;5.85;;
38944;SDS011;24732;49.088;8.286;2022-09-01T15:40:22;6.70;;;6.05;;
38944;SDS011;24732;49.088;8.286;2022-09-01T15:43:09;4.70;;;4.30;;
38944;SDS011;24732;49.088;8.286;2022-09-01T15:45:56;4.78;;;4.28;;
38944;SDS011;24732;49.088;8.286;2022-09-01T15:48:43;4.35;;;3.95;;
38944;SDS011;24732;49.088;8.286;2022-09-01T15:51:31;5.13;;;4.13;;
38944;SDS011;24732;49.088;8.286;2022-09-01T15:54:18;5.03;;;4.40;;
38944;SDS011;24732;49.088;8.286;2022-09-01T15:57:05;4.68;;;4.30;;
38944;SDS011;24732;49.088;8.286;2022-09-01T15:59:51;5.38;;;4.22;;
38944;SDS011;24732;49.088;8.286;2022-09-01T16:02:37;4.70;;;4.30;;
38944;SDS011;24732;49.088;8.286;2022-09-01T16:05:24;5.07;;;4.57;;
38944;SDS011;24732;49.088;8.286;2022-09-01T16:08:11;4.70;;;4.30;;
38944;SDS011;24732;49.088;8.286;2022-09-01T16:10:58;5.10;;;4.60;;
38944;SDS011;24732;49.088;8.286;2022-09-01T16:13:44;4.65;;;4.25;;
38944;SDS011;24732;49.088;8.286;2022-09-01T16:16:48;5.50;;;5.00;;
38944;SDS011;24732;49.088;8.286;2022-09-01T16:19:47;4.97;;;4.57;;
38944;SDS011;24732;49.088;8.286;2022-09-01T16:22:34;5.20;;;4.70;;
38944;SDS011;24732;49.088;8.286;2022-09-01T16:25:26;5.17;;;4.67;;
38944;SDS011;24732;49.088;8.286;2022-09-01T16:28:24;4.88;;;4.47;;
38944;SDS011;24732;49.088;8.286;2022-09-01T16:31:13;4.75;;;4.35;;
38944;SDS011;24732;49.088;8.286;2022-09-01T16:34:00;4.50;;;4.15;;
38944;SDS011;24732;49.088;8.286;2022-09-01T16:36:57;4.80;;;4.35;;
38944;SDS011;24732;49.088;8.286;2022-09-01T16:39:50;4.93;;;4.43;;
38944;SDS011;24732;49.088;8.286;2022-09-01T16:54:13;4.55;;;4.15;;
38944;SDS011;24732;49.088;8.286;2022-09-01T16:59:55;4.70;;;4.20;;
38944;SDS011;24732;49.088;8.286;2022-09-01T17:05:39;4.55;;;4.15;;
38944;SDS011;24732;49.088;8.286;2022-09-01T17:08:32;4.20;;;3.90;;
38944;SDS011;24732;49.088;8.286;2022-09-01T17:11:23;4.60;;;4.20;;
38944;SDS011;24732;49.088;8.286;2022-09-01T17:14:16;4.60;;;4.20;;
38944;SDS011;24732;49.088;8.286;2022-09-01T17:17:11;5.22;;;4.43;;
38944;SDS011;24732;49.088;8.286;2022-09-01T17:19:59;5.18;;;4.60;;
38944;SDS011;24732;49.088;8.286;2022-09-01T17:22:49;4.60;;;4.20;;
38944;SDS011;24732;49.088;8.286;2022-09-01T17:25:36;5.05;;;4.55;;
38944;SDS011;24732;49.088;8.286;2022-09-01T17:28:26;9.15;;;8.07;;
38944;SDS011;24732;49.088;8.286;2022-09-01T17:37:02;4.45;;;4.10;;
38944;SDS011;24732;49.088;8.286;2022-09-01T17:39:56;4.65;;;4.25;;
38944;SDS011;24732;49.088;8.286;2022-09-01T17:45:40;5.10;;;4.70;;
38944;SDS011;24732;49.088;8.286;2022-09-01T17:48:37;5.80;;;5.20;;
38944;SDS011;24732;49.088;8.286;2022-09-01T17:57:03;5.35;;;4.85;;
38944;SDS011;24732;49.088;8.286;2022-09-01T17:59:57;5.32;;;4.93;;
38944;SDS011;24732;49.088;8.286;2022-09-01T18:05:41;5.07;;;4.67;;
38944;SDS011;24732;49.088;8.286;2022-09-01T18:11:15;4.88;;;4.43;;
38944;SDS011;24732;49.088;8.286;2022-09-01T18:14:11;5.10;;;4.60;;
38944;SDS011;24732;49.088;8.286;2022-09-01T18:17:13;4.60;;;4.20;;
38944;SDS011;24732;49.088;8.286;2022-09-01T18:23:06;4.57;;;4.13;;
38944;SDS011;24732;49.088;8.286;2022-09-01T18:25:54;5.03;;;4.53;;
38944;SDS011;24732;49.088;8.286;2022-09-01T18:28:41;5.00;;;4.50;;
38944;SDS011;24732;49.088;8.286;2022-09-01T18:34:28;4.60;;;4.20;;
38944;SDS011;24732;49.088;8.286;2022-09-01T18:37:31;7.65;;;6.80;;
38944;SDS011;24732;49.088;8.286;2022-09-01T18:40:28;5.00;;;4.50;;